createdAt,value
2023-01-13T00:01:47.196Z,17.63
2023-01-13T00:04:13.996Z,18.95
2023-01-13T00:06:40.922Z,17.90
2023-01-13T00:09:07.744Z,23.55
2023-01-13T00:11:35.382Z,26.58
2023-01-13T00:14:02.226Z,22.63
2023-01-13T00:16:28.975Z,17.55
2023-01-13T00:18:55.971Z,28.95
2023-01-13T00:21:24.602Z,37.70
2023-01-13T00:23:55.380Z,26.83
2023-01-13T00:26:25.020Z,45.15
2023-01-13T00:28:59.678Z,31.30
2023-01-13T00:31:27.874Z,31.65
2023-01-13T00:33:57.057Z,30.80
2023-01-13T00:36:24.029Z,30.77
2023-01-13T00:38:50.840Z,35.35
2023-01-13T00:41:20.197Z,37.03
2023-01-13T00:43:47.404Z,32.50
2023-01-13T00:46:17.446Z,31.02
2023-01-13T00:48:44.825Z,29.02
2023-01-13T00:51:17.339Z,29.30
2023-01-13T00:53:47.633Z,34.70
2023-01-13T00:56:16.650Z,27.58
2023-01-13T00:58:44.839Z,38.17
2023-01-13T01:01:14.490Z,34.10
2023-01-13T01:03:41.455Z,30.15
2023-01-13T01:06:12.337Z,30.38
2023-01-13T01:08:39.371Z,28.30
2023-01-13T01:11:08.649Z,30.10
2023-01-13T01:13:36.039Z,26.70
2023-01-13T01:16:08.969Z,32.03
2023-01-13T01:18:37.435Z,30.73
2023-01-13T01:21:05.312Z,38.42
2023-01-13T01:23:33.838Z,31.73
2023-01-13T01:26:08.405Z,32.22
2023-01-13T01:28:35.540Z,36.90
2023-01-13T01:31:10.980Z,35.20
2023-01-13T01:33:37.924Z,40.80
2023-01-13T01:36:05.076Z,31.80
2023-01-13T01:38:31.883Z,37.47
2023-01-13T01:40:58.810Z,35.65
2023-01-13T01:44:24.061Z,27.48
2023-01-13T01:46:51.890Z,26.27
2023-01-13T01:49:18.767Z,30.75
2023-01-13T01:51:49.940Z,40.10
2023-01-13T01:54:24.310Z,40.30
2023-01-13T01:56:51.978Z,30.17
2023-01-13T01:59:19.197Z,32.15
2023-01-13T02:01:49.270Z,45.65
2023-01-13T02:04:25.379Z,25.55
2023-01-13T02:06:53.593Z,31.02
2023-01-13T02:09:20.416Z,34.83
2023-01-13T02:12:05.738Z,35.83
2023-01-13T02:14:34.375Z,39.45
2023-01-13T02:17:46.161Z,34.40
2023-01-13T02:20:31.602Z,37.38
2023-01-13T02:23:01.529Z,37.50
2023-01-13T02:25:46.858Z,37.05
2023-01-13T02:28:16.568Z,29.50
2023-01-13T02:31:01.860Z,29.98
2023-01-13T02:34:03.871Z,46.63
2023-01-13T02:36:46.916Z,36.22
2023-01-13T02:39:29.858Z,36.03
2023-01-13T02:42:28.730Z,33.22
2023-01-13T02:45:14.842Z,45.78
2023-01-13T02:47:44.128Z,30.42
2023-01-13T02:50:13.812Z,38.40
2023-01-13T02:52:58.482Z,30.65
2023-01-13T02:55:32.284Z,46.67
2023-01-13T02:58:02.054Z,29.13
2023-01-13T03:00:29.874Z,35.47
2023-01-13T03:02:57.349Z,29.83
2023-01-13T03:05:24.678Z,49.38
2023-01-13T03:08:22.952Z,36.53
2023-01-13T03:11:03.035Z,45.35
2023-01-13T03:13:39.230Z,37.10
2023-01-13T03:16:27.679Z,45.85
2023-01-13T03:19:16.276Z,34.67
2023-01-13T03:21:49.146Z,36.28
2023-01-13T03:24:37.099Z,44.15
2023-01-13T03:27:15.446Z,42.25
2023-01-13T03:30:09.606Z,39.88
2023-01-13T03:32:44.357Z,37.33
2023-01-13T03:35:17.661Z,46.55
2023-01-13T03:40:33.262Z,26.15
2023-01-13T03:43:28.727Z,43.65
2023-01-13T03:45:59.943Z,47.30
2023-01-13T03:48:28.741Z,31.05
2023-01-13T03:51:02.450Z,40.25
2023-01-13T03:53:32.752Z,40.72
2023-01-13T03:56:13.318Z,39.55
2023-01-13T03:58:44.907Z,37.75
2023-01-13T04:01:17.072Z,42.70
2023-01-13T04:03:50.215Z,33.17
2023-01-13T04:08:57.517Z,39.55
2023-01-13T04:11:38.034Z,45.80
2023-01-13T04:14:07.811Z,38.80
2023-01-13T04:16:37.625Z,40.75
2023-01-13T04:19:04.953Z,37.70
2023-01-13T04:21:32.032Z,42.45
2023-01-13T04:23:58.834Z,34.63
2023-01-13T04:26:25.832Z,40.75
2023-01-13T04:28:54.751Z,41.47
2023-01-13T04:31:22.002Z,46.42
2023-01-13T04:33:48.928Z,47.40
2023-01-13T04:36:15.846Z,38.80
2023-01-13T04:38:42.821Z,43.15
2023-01-13T04:41:09.668Z,35.75
2023-01-13T04:43:36.715Z,35.28
2023-01-13T04:46:03.579Z,28.10
2023-01-13T04:48:30.480Z,45.25
2023-01-13T04:50:57.342Z,38.42
2023-01-13T04:53:24.125Z,29.83
2023-01-13T04:55:52.069Z,44.67
2023-01-13T04:58:18.978Z,36.40
2023-01-13T05:00:45.788Z,31.60
2023-01-13T05:03:12.733Z,42.67
2023-01-13T05:05:39.562Z,40.05
2023-01-13T05:08:06.441Z,43.25
2023-01-13T05:10:33.498Z,37.90
2023-01-13T05:13:18.773Z,40.00
2023-01-13T05:16:06.437Z,31.40
2023-01-13T05:18:33.672Z,33.45
2023-01-13T05:21:00.541Z,35.47
2023-01-13T05:23:46.640Z,32.95
2023-01-13T05:26:13.552Z,32.75
2023-01-13T05:28:40.347Z,38.60
2023-01-13T05:31:07.241Z,39.35
2023-01-13T05:33:35.730Z,33.53
2023-01-13T05:36:03.888Z,22.65
2023-01-13T05:38:30.876Z,37.88
2023-01-13T05:41:18.974Z,33.80
2023-01-13T05:43:48.766Z,31.58
2023-01-13T05:46:17.695Z,33.58
2023-01-13T05:48:45.535Z,43.85
2023-01-13T05:51:13.198Z,32.13
2023-01-13T05:53:40.946Z,30.67
2023-01-13T05:56:09.487Z,32.55
2023-01-13T05:58:36.479Z,24.38
2023-01-13T06:01:07.768Z,26.00
2023-01-13T06:03:36.500Z,23.10
2023-01-13T06:06:04.532Z,26.35
2023-01-13T06:08:32.272Z,35.10
2023-01-13T06:10:59.489Z,28.15
2023-01-13T06:13:26.485Z,28.70
2023-01-13T06:16:00.568Z,23.33
2023-01-13T06:18:27.894Z,24.52
2023-01-13T06:20:55.165Z,31.88
2023-01-13T06:23:21.999Z,22.55
2023-01-13T06:26:19.031Z,31.17
2023-01-13T06:28:50.062Z,30.50
2023-01-13T06:31:17.466Z,23.10
2023-01-13T06:33:50.653Z,16.38
2023-01-13T06:38:49.825Z,22.38
2023-01-13T06:41:17.265Z,21.15
2023-01-13T06:43:44.201Z,12.60
2023-01-13T06:46:11.052Z,23.92
2023-01-13T06:48:37.896Z,19.52
2023-01-13T06:51:05.427Z,19.40
2023-01-13T06:53:32.408Z,12.32
2023-01-13T06:55:59.223Z,22.45
2023-01-13T06:58:26.151Z,27.40
2023-01-13T07:00:53.677Z,14.35
2023-01-13T07:03:20.651Z,13.55
2023-01-13T07:05:55.336Z,22.92
2023-01-13T07:08:23.376Z,15.57
2023-01-13T07:10:51.170Z,13.30
2023-01-13T07:13:36.828Z,18.08
2023-01-13T07:16:06.606Z,22.75
2023-01-13T07:18:34.745Z,21.23
2023-01-13T07:21:09.820Z,13.23
2023-01-13T07:23:39.609Z,20.83
2023-01-13T07:26:08.263Z,17.83
2023-01-13T07:28:35.663Z,19.45
2023-01-13T07:31:02.973Z,20.02
2023-01-13T07:33:33.163Z,19.17
2023-01-13T07:36:05.524Z,16.80
2023-01-13T07:38:33.770Z,29.13
2023-01-13T07:41:24.019Z,18.75
2023-01-13T07:43:51.887Z,20.40
2023-01-13T07:46:19.210Z,22.13
2023-01-13T07:48:47.225Z,16.80
2023-01-13T07:51:14.079Z,16.60
2023-01-13T07:53:40.979Z,19.65
2023-01-13T07:56:08.435Z,15.68
2023-01-13T07:58:36.650Z,17.85
2023-01-13T08:01:12.421Z,11.98
2023-01-13T08:03:40.754Z,19.30
2023-01-13T08:06:08.244Z,23.35
2023-01-13T08:08:35.374Z,18.13
2023-01-13T08:11:05.555Z,31.08
2023-01-13T08:13:32.395Z,23.90
2023-01-13T08:16:17.489Z,20.60
2023-01-13T08:18:44.409Z,13.20
2023-01-13T08:21:14.161Z,27.55
2023-01-13T08:23:42.440Z,26.13
2023-01-13T08:26:16.120Z,19.90
2023-01-13T08:28:44.836Z,21.10
2023-01-13T08:31:14.485Z,21.23
2023-01-13T08:33:42.391Z,21.25
2023-01-13T08:36:12.320Z,27.00
2023-01-13T08:38:43.686Z,29.20
2023-01-13T08:41:13.618Z,18.83
2023-01-13T08:43:40.546Z,26.80
2023-01-13T08:46:07.646Z,23.00
2023-01-13T08:48:34.607Z,34.90
2023-01-13T08:51:06.572Z,23.60
2023-01-13T08:53:33.512Z,21.52
2023-01-13T08:56:00.449Z,23.83
2023-01-13T08:58:27.406Z,23.92
2023-01-13T09:00:54.325Z,30.75
2023-01-13T09:03:21.510Z,34.85
2023-01-13T09:05:48.320Z,25.20
2023-01-13T09:08:15.202Z,26.88
2023-01-13T09:10:42.187Z,29.65
2023-01-13T09:13:13.238Z,23.45
2023-01-13T09:15:45.916Z,21.88
2023-01-13T09:18:13.315Z,33.65
2023-01-13T09:20:40.550Z,25.88
2023-01-13T09:23:11.028Z,28.98
2023-01-13T09:25:38.965Z,20.20
2023-01-13T09:28:12.780Z,31.10
2023-01-13T09:30:39.607Z,30.00
2023-01-13T09:33:27.762Z,26.77
2023-01-13T09:36:08.236Z,25.58
2023-01-13T09:38:35.045Z,21.75
2023-01-13T09:41:22.533Z,23.77
2023-01-13T09:43:56.799Z,27.67
2023-01-13T09:46:44.845Z,27.50
2023-01-13T09:49:27.069Z,23.08
2023-01-13T09:52:10.237Z,23.55
2023-01-13T09:55:05.050Z,28.08
2023-01-13T09:57:37.532Z,25.15
2023-01-13T10:00:16.993Z,29.33
2023-01-13T10:03:18.265Z,28.92
2023-01-13T10:05:56.607Z,21.77
2023-01-13T10:08:29.399Z,21.83
2023-01-13T10:10:59.729Z,31.30
2023-01-13T10:13:31.330Z,32.50
2023-01-13T10:16:19.839Z,17.25
2023-01-13T10:19:06.723Z,20.20
2023-01-13T10:22:04.427Z,28.95
2023-01-13T10:25:10.290Z,31.98
2023-01-13T10:27:39.578Z,26.92
2023-01-13T10:30:19.961Z,26.73
2023-01-13T10:32:58.736Z,25.98
2023-01-13T10:36:11.634Z,17.20
2023-01-13T10:39:02.030Z,28.25
2023-01-13T10:41:28.982Z,27.55
2023-01-13T10:44:01.233Z,23.80
2023-01-13T10:46:49.782Z,25.33
2023-01-13T10:49:33.132Z,28.00
2023-01-13T10:52:01.957Z,33.65
2023-01-13T10:54:29.677Z,29.48
2023-01-13T10:57:37.544Z,24.55
2023-01-13T11:00:06.166Z,24.15
2023-01-13T11:02:36.105Z,27.10
2023-01-13T11:05:28.467Z,37.80
2023-01-13T11:07:58.002Z,26.45
2023-01-13T11:10:34.055Z,29.35
2023-01-13T11:16:18.266Z,30.23
2023-01-13T11:19:14.678Z,32.90
2023-01-13T11:22:03.642Z,32.00
2023-01-13T11:24:42.994Z,32.08
2023-01-13T11:27:37.515Z,31.88
2023-01-13T11:30:26.028Z,27.52
2023-01-13T11:33:11.166Z,26.63
2023-01-13T11:36:15.604Z,26.92
2023-01-13T11:38:55.911Z,25.67
2023-01-13T11:41:41.936Z,22.33
2023-01-13T11:44:38.579Z,31.27
2023-01-13T11:47:05.488Z,33.15
2023-01-13T11:49:33.945Z,28.70
2023-01-13T11:52:30.673Z,25.88
2023-01-13T11:55:25.380Z,28.13
2023-01-13T11:58:50.198Z,30.05
2023-01-13T12:01:36.511Z,37.67
2023-01-13T12:04:41.831Z,26.35
2023-01-13T12:07:28.783Z,29.60
2023-01-13T12:10:05.205Z,26.00
2023-01-13T12:12:53.318Z,25.73
2023-01-13T12:15:42.193Z,24.05
2023-01-13T12:18:30.474Z,29.70
2023-01-13T12:21:06.598Z,27.50
2023-01-13T12:23:39.368Z,22.10
2023-01-13T12:26:16.750Z,27.98
2023-01-13T12:28:53.072Z,37.92
2023-01-13T12:31:21.819Z,29.23
2023-01-13T12:33:56.596Z,25.50
2023-01-13T12:36:35.731Z,19.77
2023-01-13T12:39:31.266Z,23.85
2023-01-13T12:42:34.899Z,25.85
2023-01-13T12:45:11.070Z,22.85
2023-01-13T12:50:37.682Z,26.92
2023-01-13T12:53:33.799Z,32.20
2023-01-13T12:56:36.995Z,25.75
2023-01-13T12:59:19.358Z,33.47
2023-01-13T13:01:48.971Z,17.85
2023-01-13T13:04:42.755Z,30.50
2023-01-13T13:09:46.347Z,19.23
2023-01-13T13:12:49.975Z,18.35
2023-01-13T13:15:24.042Z,23.77
2023-01-13T13:18:02.698Z,20.73
2023-01-13T13:21:04.526Z,29.13
2023-01-13T13:23:43.659Z,23.17
2023-01-13T13:26:22.089Z,21.00
2023-01-13T13:28:57.935Z,17.90
2023-01-13T13:31:55.739Z,21.58
2023-01-13T13:34:32.623Z,22.92
2023-01-13T13:37:20.585Z,24.23
2023-01-13T13:40:06.492Z,19.55
2023-01-13T13:43:02.284Z,31.55
2023-01-13T13:45:48.321Z,17.50
2023-01-13T13:48:31.193Z,26.00
2023-01-13T13:51:04.682Z,17.25
2023-01-13T13:53:37.203Z,19.10
2023-01-13T13:56:14.784Z,16.63
2023-01-13T13:58:41.819Z,22.23
2023-01-13T14:01:28.282Z,15.90
2023-01-13T14:04:07.587Z,17.48
2023-01-13T14:06:34.503Z,26.15
2023-01-13T14:09:03.403Z,19.08
2023-01-13T14:11:33.176Z,20.52
2023-01-13T14:14:21.066Z,19.60
2023-01-13T14:16:47.953Z,18.88
2023-01-13T14:19:33.113Z,15.82
2023-01-13T14:22:02.483Z,15.43
2023-01-13T14:24:30.698Z,22.10
2023-01-13T14:27:16.291Z,11.77
2023-01-13T14:29:54.964Z,16.55
2023-01-13T14:32:36.536Z,20.25
2023-01-13T14:35:07.299Z,20.10
2023-01-13T14:37:39.831Z,15.70
2023-01-13T14:40:27.569Z,13.33
2023-01-13T14:43:11.871Z,20.33
2023-01-13T14:45:42.427Z,14.13
2023-01-13T14:48:39.328Z,24.67
2023-01-13T14:51:11.425Z,11.18
2023-01-13T14:53:47.147Z,18.40
2023-01-13T14:56:39.618Z,21.48
2023-01-13T14:59:51.884Z,17.00
2023-01-13T15:02:39.008Z,14.88
2023-01-13T15:05:22.456Z,9.85
2023-01-13T15:08:00.555Z,13.90
2023-01-13T15:10:31.675Z,18.48
2023-01-13T15:13:01.225Z,18.70
2023-01-13T15:15:33.888Z,15.65
2023-01-13T15:18:22.041Z,10.98
2023-01-13T15:20:50.903Z,12.48
2023-01-13T15:23:19.626Z,14.00
2023-01-13T15:25:47.296Z,10.88
2023-01-13T15:28:25.830Z,11.70
2023-01-13T15:30:54.432Z,18.52
2023-01-13T15:33:22.374Z,17.00
2023-01-13T15:35:51.999Z,12.27
2023-01-13T15:38:21.776Z,15.10
2023-01-13T15:40:50.722Z,15.35
2023-01-13T15:43:38.279Z,14.48
2023-01-13T15:46:38.573Z,15.10
2023-01-13T15:49:12.862Z,16.10
2023-01-13T15:51:40.279Z,20.25
2023-01-13T15:54:10.073Z,12.75
2023-01-13T15:56:38.087Z,14.68
2023-01-13T15:59:10.660Z,14.50
2023-01-13T16:01:37.533Z,11.25
2023-01-13T16:04:04.531Z,12.25
2023-01-13T16:06:36.282Z,19.38
2023-01-13T16:09:04.773Z,10.05
2023-01-13T16:11:31.730Z,14.55
2023-01-13T16:13:58.731Z,13.85
2023-01-13T16:16:27.827Z,17.77
2023-01-13T16:19:38.871Z,17.73
2023-01-13T16:22:06.023Z,13.15
2023-01-13T16:24:34.600Z,10.50
2023-01-13T16:27:07.697Z,16.05
2023-01-13T16:29:45.149Z,11.65
2023-01-13T16:32:12.112Z,15.90
2023-01-13T16:34:39.486Z,10.77
2023-01-13T16:37:41.847Z,17.20
2023-01-13T16:40:23.032Z,11.90
2023-01-13T16:42:50.451Z,10.30
2023-01-13T16:45:18.132Z,12.07
2023-01-13T16:47:45.608Z,8.30
2023-01-13T16:50:42.177Z,8.57
2023-01-13T16:53:15.625Z,6.28
2023-01-13T16:56:20.047Z,8.32
2023-01-13T16:58:51.569Z,5.22
2023-01-13T17:01:37.487Z,16.98
2023-01-13T17:04:05.605Z,11.13
2023-01-13T17:06:43.045Z,12.05
2023-01-13T17:09:20.641Z,11.60
2023-01-13T17:11:47.754Z,15.65
2023-01-13T17:14:18.963Z,23.45
2023-01-13T17:16:46.954Z,13.55
2023-01-13T17:19:14.478Z,17.50
2023-01-13T17:21:42.367Z,21.23
2023-01-13T17:24:10.777Z,19.45
2023-01-13T17:26:49.357Z,12.38
2023-01-13T17:29:27.309Z,14.55
2023-01-13T17:32:00.955Z,12.02
2023-01-13T17:34:28.430Z,12.15
2023-01-13T17:36:55.561Z,16.30
2023-01-13T17:39:26.304Z,20.80
2023-01-13T17:41:56.019Z,13.43
2023-01-13T17:44:31.383Z,13.07
2023-01-13T17:46:58.508Z,14.10
2023-01-13T17:49:25.611Z,9.77
2023-01-13T17:51:53.036Z,13.23
2023-01-13T17:54:45.287Z,11.27
2023-01-13T17:57:13.795Z,11.07
2023-01-13T17:59:44.127Z,9.30
2023-01-13T18:02:42.676Z,14.90
2023-01-13T18:05:39.144Z,16.05
2023-01-13T18:08:06.298Z,13.77
2023-01-13T18:10:36.069Z,18.38
2023-01-13T18:13:15.507Z,12.93
2023-01-13T18:15:45.329Z,12.52
2023-01-13T18:18:21.491Z,15.73
2023-01-13T18:21:07.116Z,10.90
2023-01-13T18:23:52.495Z,14.15
2023-01-13T18:26:39.196Z,8.90
2023-01-13T18:29:06.282Z,18.25
2023-01-13T18:31:33.133Z,11.38
2023-01-13T18:34:15.802Z,7.68
2023-01-13T18:36:49.321Z,12.45
2023-01-13T18:39:25.039Z,12.40
2023-01-13T18:42:10.355Z,11.35
2023-01-13T18:44:53.403Z,12.80
2023-01-13T18:47:20.456Z,14.73
2023-01-13T18:49:47.367Z,15.88
2023-01-13T18:52:14.327Z,11.70
2023-01-13T18:54:41.338Z,15.60
2023-01-13T18:57:08.359Z,13.48
2023-01-13T18:59:35.336Z,13.13
2023-01-13T19:02:08.368Z,10.57
2023-01-13T19:07:29.328Z,14.63
2023-01-13T19:09:56.333Z,12.05
2023-01-13T19:12:26.369Z,16.48
2023-01-13T19:14:55.452Z,9.18
2023-01-13T19:17:24.005Z,5.22
2023-01-13T19:20:02.117Z,10.82
2023-01-13T19:22:37.529Z,14.18
2023-01-13T19:25:09.022Z,10.95
2023-01-13T19:28:08.975Z,12.73
2023-01-13T19:30:36.240Z,14.65
2023-01-13T19:33:03.264Z,11.60
2023-01-13T19:35:30.195Z,10.98
2023-01-13T19:37:57.375Z,18.27
2023-01-13T19:43:24.072Z,11.98
2023-01-13T19:45:51.529Z,15.18
2023-01-13T19:48:18.403Z,21.42
2023-01-13T19:50:45.567Z,16.10
2023-01-13T19:53:17.642Z,14.85
2023-01-13T19:55:47.730Z,18.83
2023-01-13T19:58:18.941Z,19.58
2023-01-13T20:00:55.346Z,13.90
2023-01-13T20:03:25.415Z,18.70
2023-01-13T20:05:53.628Z,16.25
2023-01-13T20:08:22.316Z,14.02
2023-01-13T20:10:49.662Z,19.55
2023-01-13T20:13:16.916Z,11.85
2023-01-13T20:15:44.067Z,19.17
2023-01-13T20:18:11.109Z,15.13
2023-01-13T20:20:38.152Z,15.93
2023-01-13T20:23:11.471Z,17.73
2023-01-13T20:25:42.510Z,16.10
2023-01-13T20:28:09.552Z,14.63
2023-01-13T20:30:39.160Z,12.45
2023-01-13T20:33:10.800Z,17.92
2023-01-13T20:35:37.784Z,11.65
2023-01-13T20:38:04.702Z,19.17
2023-01-13T20:40:31.544Z,11.05
2023-01-13T20:42:58.425Z,13.77
2023-01-13T20:45:26.152Z,16.65
2023-01-13T20:47:54.156Z,19.65
2023-01-13T20:50:29.327Z,18.00
2023-01-13T20:55:50.939Z,13.70
2023-01-13T20:58:17.844Z,11.05
2023-01-13T21:03:28.332Z,12.85
2023-01-13T21:05:58.761Z,13.07
2023-01-13T21:08:30.205Z,20.00
2023-01-13T21:11:10.500Z,11.98
2023-01-13T21:14:03.543Z,14.50
2023-01-13T21:16:33.140Z,22.67
2023-01-13T21:19:16.263Z,17.02
2023-01-13T21:21:43.211Z,15.45
2023-01-13T21:24:17.231Z,16.13
2023-01-13T21:26:54.694Z,21.63
2023-01-13T21:29:25.761Z,15.70
2023-01-13T21:31:56.285Z,18.83
2023-01-13T21:34:23.267Z,20.15
2023-01-13T21:36:50.167Z,17.65
2023-01-13T21:39:24.912Z,22.30
2023-01-13T21:42:10.823Z,19.73
2023-01-13T21:44:56.280Z,18.10
2023-01-13T21:47:43.491Z,17.95
2023-01-13T21:50:17.501Z,19.40
2023-01-13T21:52:45.336Z,7.88
2023-01-13T21:55:28.115Z,11.93
2023-01-13T21:58:09.488Z,20.35
2023-01-13T22:00:36.567Z,22.05
2023-01-13T22:03:05.471Z,13.77
2023-01-13T22:05:33.077Z,13.35
2023-01-13T22:08:00.237Z,14.80
2023-01-13T22:10:30.150Z,13.80
2023-01-13T22:13:33.090Z,15.63
2023-01-13T22:16:04.495Z,16.48
2023-01-13T22:18:31.431Z,20.55
2023-01-13T22:21:01.157Z,16.00
2023-01-13T22:23:28.380Z,18.45
2023-01-13T22:26:05.279Z,16.38
2023-01-13T22:28:40.661Z,17.25
2023-01-13T22:31:12.788Z,17.40
2023-01-13T22:33:40.253Z,14.75
2023-01-13T22:36:09.237Z,26.80
2023-01-13T22:38:36.747Z,17.67
2023-01-13T22:41:06.632Z,11.57
2023-01-13T22:43:34.339Z,27.67
2023-01-13T22:46:04.102Z,20.33
2023-01-13T22:48:30.940Z,19.20
2023-01-13T22:51:08.561Z,16.23
2023-01-13T22:53:36.537Z,16.83
2023-01-13T22:56:05.683Z,18.08
2023-01-13T22:58:32.629Z,21.08
2023-01-13T23:01:11.069Z,24.20
2023-01-13T23:03:38.378Z,24.80
2023-01-13T23:06:06.044Z,22.83
2023-01-13T23:08:41.115Z,13.88
2023-01-13T23:11:10.517Z,25.13
2023-01-13T23:13:39.262Z,18.52
2023-01-13T23:16:08.915Z,19.90
2023-01-13T23:18:35.901Z,18.73
2023-01-13T23:21:07.458Z,15.55
2023-01-13T23:23:34.695Z,19.40
2023-01-13T23:26:01.923Z,12.95
2023-01-13T23:28:30.153Z,11.57
2023-01-13T23:30:57.335Z,15.40
2023-01-13T23:33:24.184Z,20.33
2023-01-13T23:36:19.591Z,15.23
2023-01-13T23:38:46.979Z,17.15
2023-01-13T23:41:17.798Z,13.85
2023-01-13T23:43:50.882Z,13.70
2023-01-13T23:46:17.910Z,18.05
2023-01-13T23:48:45.234Z,16.83
2023-01-13T23:51:13.005Z,17.17
2023-01-13T23:53:42.786Z,14.88
2023-01-13T23:56:20.045Z,23.70
2023-01-13T23:58:47.401Z,13.50
